sensor_id;sensor_type;location;lat;lon;timestamp;P1;durP1;ratioP1;P2;durP2;ratioP2
44670;SDS011;48397;53.016;-2.260;2022-10-26T00:01:11;20.48;;;5.78;;
44670;SDS011;48397;53.016;-2.260;2022-10-26T00:03:41;19.92;;;7.47;;
44670;SDS011;48397;53.016;-2.260;2022-10-26T00:06:11;21.63;;;6.15;;
44670;SDS011;48397;53.016;-2.260;2022-10-26T00:08:41;16.55;;;5.97;;
44670;SDS011;48397;53.016;-2.260;2022-10-26T00:11:09;20.45;;;6.03;;
44670;SDS011;48397;53.016;-2.260;2022-10-26T00:13:38;16.58;;;5.72;;
44670;SDS011;48397;53.016;-2.260;2022-10-26T00:16:17;18.98;;;5.15;;
44670;SDS011;48397;53.016;-2.260;2022-10-26T00:18:47;23.52;;;6.68;;
44670;SDS011;48397;53.016;-2.260;2022-10-26T00:21:15;15.93;;;5.28;;
44670;SDS011;48397;53.016;-2.260;2022-10-26T00:23:43;15.93;;;6.03;;
44670;SDS011;48397;53.016;-2.260;2022-10-26T00:26:11;18.15;;;5.45;;
44670;SDS011;48397;53.016;-2.260;2022-10-26T00:28:38;27.40;;;6.70;;
44670;SDS011;48397;53.016;-2.260;2022-10-26T00:31:12;17.27;;;5.75;;
44670;SDS011;48397;53.016;-2.260;2022-10-26T00:33:41;23.27;;;5.90;;
44670;SDS011;48397;53.016;-2.260;2022-10-26T00:38:39;16.73;;;5.43;;
44670;SDS011;48397;53.016;-2.260;2022-10-26T00:41:16;11.73;;;4.28;;
44670;SDS011;48397;53.016;-2.260;2022-10-26T00:43:45;17.55;;;5.53;;
44670;SDS011;48397;53.016;-2.260;2022-10-26T00:46:47;18.75;;;5.63;;
44670;SDS011;48397;53.016;-2.260;2022-10-26T00:49:11;20.65;;;5.43;;
44670;SDS011;48397;53.016;-2.260;2022-10-26T00:51:51;18.10;;;5.45;;
44670;SDS011;48397;53.016;-2.260;2022-10-26T00:54:19;14.70;;;5.30;;
44670;SDS011;48397;53.016;-2.260;2022-10-26T00:56:48;17.00;;;5.07;;
44670;SDS011;48397;53.016;-2.260;2022-10-26T00:59:19;12.68;;;4.50;;
44670;SDS011;48397;53.016;-2.260;2022-10-26T01:01:50;21.20;;;5.68;;
44670;SDS011;48397;53.016;-2.260;2022-10-26T01:04:18;17.25;;;5.57;;
44670;SDS011;48397;53.016;-2.260;2022-10-26T01:06:46;13.25;;;4.40;;
44670;SDS011;48397;53.016;-2.260;2022-10-26T01:09:15;19.15;;;5.32;;
44670;SDS011;48397;53.016;-2.260;2022-10-26T01:11:44;16.55;;;5.57;;
44670;SDS011;48397;53.016;-2.260;2022-10-26T01:14:13;21.67;;;5.88;;
44670;SDS011;48397;53.016;-2.260;2022-10-26T01:23:29;16.67;;;5.10;;
44670;SDS011;48397;53.016;-2.260;2022-10-26T01:31:41;18.70;;;5.10;;
44670;SDS011;48397;53.016;-2.260;2022-10-26T01:34:20;18.83;;;5.30;;
44670;SDS011;48397;53.016;-2.260;2022-10-26T01:37:20;17.50;;;5.40;;
44670;SDS011;48397;53.016;-2.260;2022-10-26T01:39:53;17.17;;;5.82;;
44670;SDS011;48397;53.016;-2.260;2022-10-26T01:42:30;20.50;;;5.57;;
44670;SDS011;48397;53.016;-2.260;2022-10-26T01:45:00;16.42;;;5.13;;
44670;SDS011;48397;53.016;-2.260;2022-10-26T01:47:35;15.18;;;4.85;;
44670;SDS011;48397;53.016;-2.260;2022-10-26T01:50:04;16.02;;;5.00;;
44670;SDS011;48397;53.016;-2.260;2022-10-26T01:52:34;23.55;;;5.95;;
44670;SDS011;48397;53.016;-2.260;2022-10-26T02:00:50;17.17;;;5.10;;
44670;SDS011;48397;53.016;-2.260;2022-10-26T02:04:02;13.02;;;4.70;;
44670;SDS011;48397;53.016;-2.260;2022-10-26T02:06:35;12.80;;;4.97;;
44670;SDS011;48397;53.016;-2.260;2022-10-26T02:11:55;13.52;;;4.90;;
44670;SDS011;48397;53.016;-2.260;2022-10-26T02:17:28;21.55;;;6.22;;
44670;SDS011;48397;53.016;-2.260;2022-10-26T02:20:04;15.18;;;5.25;;
44670;SDS011;48397;53.016;-2.260;2022-10-26T02:22:39;20.92;;;5.97;;
44670;SDS011;48397;53.016;-2.260;2022-10-26T02:25:14;24.90;;;6.57;;
44670;SDS011;48397;53.016;-2.260;2022-10-26T02:28:03;25.38;;;6.15;;
44670;SDS011;48397;53.016;-2.260;2022-10-26T02:30:36;22.80;;;5.93;;
44670;SDS011;48397;53.016;-2.260;2022-10-26T02:33:05;25.20;;;5.95;;
44670;SDS011;48397;53.016;-2.260;2022-10-26T02:35:35;16.45;;;5.25;;
44670;SDS011;48397;53.016;-2.260;2022-10-26T02:38:06;22.25;;;5.78;;
44670;SDS011;48397;53.016;-2.260;2022-10-26T02:40:36;22.15;;;6.35;;
44670;SDS011;48397;53.016;-2.260;2022-10-26T02:43:07;18.58;;;6.45;;
44670;SDS011;48397;53.016;-2.260;2022-10-26T02:45:51;20.85;;;5.53;;
44670;SDS011;48397;53.016;-2.260;2022-10-26T02:48:22;15.30;;;5.82;;
44670;SDS011;48397;53.016;-2.260;2022-10-26T02:51:00;19.42;;;6.10;;
44670;SDS011;48397;53.016;-2.260;2022-10-26T02:53:33;16.90;;;5.30;;
44670;SDS011;48397;53.016;-2.260;2022-10-26T02:56:08;23.35;;;5.38;;
44670;SDS011;48397;53.016;-2.260;2022-10-26T02:58:45;15.65;;;5.13;;
44670;SDS011;48397;53.016;-2.260;2022-10-26T03:01:17;16.50;;;4.95;;
44670;SDS011;48397;53.016;-2.260;2022-10-26T03:06:21;12.90;;;5.40;;
44670;SDS011;48397;53.016;-2.260;2022-10-26T03:08:49;18.20;;;5.40;;
44670;SDS011;48397;53.016;-2.260;2022-10-26T03:16:12;14.60;;;4.60;;
44670;SDS011;48397;53.016;-2.260;2022-10-26T03:18:39;13.98;;;4.53;;
44670;SDS011;48397;53.016;-2.260;2022-10-26T03:21:07;17.63;;;4.57;;
44670;SDS011;48397;53.016;-2.260;2022-10-26T03:23:35;15.27;;;4.68;;
44670;SDS011;48397;53.016;-2.260;2022-10-26T03:26:02;18.30;;;5.30;;
44670;SDS011;48397;53.016;-2.260;2022-10-26T03:28:30;16.15;;;4.95;;
44670;SDS011;48397;53.016;-2.260;2022-10-26T03:30:57;15.90;;;5.22;;
44670;SDS011;48397;53.016;-2.260;2022-10-26T03:33:25;17.60;;;4.88;;
44670;SDS011;48397;53.016;-2.260;2022-10-26T03:35:54;20.40;;;4.95;;
44670;SDS011;48397;53.016;-2.260;2022-10-26T03:38:22;14.52;;;5.07;;
44670;SDS011;48397;53.016;-2.260;2022-10-26T03:40:50;13.88;;;4.90;;
44670;SDS011;48397;53.016;-2.260;2022-10-26T03:43:18;14.88;;;4.88;;
44670;SDS011;48397;53.016;-2.260;2022-10-26T03:45:45;12.30;;;4.95;;
44670;SDS011;48397;53.016;-2.260;2022-10-26T03:48:13;18.40;;;4.53;;
44670;SDS011;48397;53.016;-2.260;2022-10-26T03:50:41;18.58;;;4.82;;
44670;SDS011;48397;53.016;-2.260;2022-10-26T03:53:08;13.13;;;4.88;;
44670;SDS011;48397;53.016;-2.260;2022-10-26T03:55:36;10.02;;;4.65;;
44670;SDS011;48397;53.016;-2.260;2022-10-26T03:58:04;16.40;;;5.13;;
44670;SDS011;48397;53.016;-2.260;2022-10-26T04:00:31;16.38;;;5.35;;
44670;SDS011;48397;53.016;-2.260;2022-10-26T04:02:59;11.30;;;4.53;;
44670;SDS011;48397;53.016;-2.260;2022-10-26T04:05:27;20.13;;;5.80;;
44670;SDS011;48397;53.016;-2.260;2022-10-26T04:07:56;13.05;;;6.00;;
44670;SDS011;48397;53.016;-2.260;2022-10-26T04:10:26;15.35;;;5.00;;
44670;SDS011;48397;53.016;-2.260;2022-10-26T04:12:54;13.88;;;5.35;;
44670;SDS011;48397;53.016;-2.260;2022-10-26T04:15:24;16.92;;;4.82;;
44670;SDS011;48397;53.016;-2.260;2022-10-26T04:17:56;13.43;;;4.88;;
44670;SDS011;48397;53.016;-2.260;2022-10-26T04:20:25;13.20;;;5.25;;
44670;SDS011;48397;53.016;-2.260;2022-10-26T04:22:58;13.25;;;4.75;;
44670;SDS011;48397;53.016;-2.260;2022-10-26T04:25:27;16.60;;;5.18;;
44670;SDS011;48397;53.016;-2.260;2022-10-26T04:27:59;15.05;;;4.47;;
44670;SDS011;48397;53.016;-2.260;2022-10-26T04:30:29;15.40;;;4.88;;
44670;SDS011;48397;53.016;-2.260;2022-10-26T04:32:57;14.35;;;4.15;;
44670;SDS011;48397;53.016;-2.260;2022-10-26T04:37:56;14.02;;;5.10;;
44670;SDS011;48397;53.016;-2.260;2022-10-26T04:40:28;14.07;;;5.47;;
44670;SDS011;48397;53.016;-2.260;2022-10-26T04:42:57;16.17;;;4.95;;
44670;SDS011;48397;53.016;-2.260;2022-10-26T04:45:25;17.55;;;4.80;;
44670;SDS011;48397;53.016;-2.260;2022-10-26T04:48:04;16.50;;;4.63;;
44670;SDS011;48397;53.016;-2.260;2022-10-26T04:50:33;15.63;;;4.93;;
44670;SDS011;48397;53.016;-2.260;2022-10-26T04:53:05;27.05;;;4.80;;
44670;SDS011;48397;53.016;-2.260;2022-10-26T04:55:34;14.30;;;4.30;;
44670;SDS011;48397;53.016;-2.260;2022-10-26T05:00:29;14.57;;;4.63;;
44670;SDS011;48397;53.016;-2.260;2022-10-26T05:02:59;9.05;;;4.00;;
44670;SDS011;48397;53.016;-2.260;2022-10-26T05:05:27;11.77;;;4.78;;
44670;SDS011;48397;53.016;-2.260;2022-10-26T05:07:56;13.10;;;3.90;;
44670;SDS011;48397;53.016;-2.260;2022-10-26T05:15:20;9.50;;;3.90;;
44670;SDS011;48397;53.016;-2.260;2022-10-26T05:17:55;13.13;;;4.32;;
44670;SDS011;48397;53.016;-2.260;2022-10-26T05:20:29;14.38;;;3.97;;
44670;SDS011;48397;53.016;-2.260;2022-10-26T05:22:58;16.50;;;4.10;;
44670;SDS011;48397;53.016;-2.260;2022-10-26T05:25:28;14.40;;;4.50;;
44670;SDS011;48397;53.016;-2.260;2022-10-26T05:27:58;15.43;;;4.60;;
44670;SDS011;48397;53.016;-2.260;2022-10-26T05:30:27;13.95;;;4.60;;
44670;SDS011;48397;53.016;-2.260;2022-10-26T05:32:59;13.07;;;4.47;;
44670;SDS011;48397;53.016;-2.260;2022-10-26T05:35:30;12.07;;;4.15;;
44670;SDS011;48397;53.016;-2.260;2022-10-26T05:37:58;11.80;;;3.65;;
44670;SDS011;48397;53.016;-2.260;2022-10-26T05:40:27;16.85;;;4.35;;
44670;SDS011;48397;53.016;-2.260;2022-10-26T05:42:58;13.93;;;3.78;;
44670;SDS011;48397;53.016;-2.260;2022-10-26T05:45:27;15.23;;;3.90;;
44670;SDS011;48397;53.016;-2.260;2022-10-26T05:47:55;12.38;;;3.55;;
44670;SDS011;48397;53.016;-2.260;2022-10-26T05:50:28;12.25;;;3.97;;
44670;SDS011;48397;53.016;-2.260;2022-10-26T05:52:56;11.38;;;3.22;;
44670;SDS011;48397;53.016;-2.260;2022-10-26T05:55:23;12.82;;;3.47;;
44670;SDS011;48397;53.016;-2.260;2022-10-26T05:57:51;12.75;;;4.18;;
44670;SDS011;48397;53.016;-2.260;2022-10-26T06:00:20;10.63;;;4.00;;
44670;SDS011;48397;53.016;-2.260;2022-10-26T06:08:11;10.23;;;3.80;;
44670;SDS011;48397;53.016;-2.260;2022-10-26T06:10:38;19.75;;;4.15;;
44670;SDS011;48397;53.016;-2.260;2022-10-26T06:16:18;15.38;;;3.20;;
44670;SDS011;48397;53.016;-2.260;2022-10-26T06:24:26;20.27;;;4.18;;
44670;SDS011;48397;53.016;-2.260;2022-10-26T06:30:04;17.52;;;3.38;;
44670;SDS011;48397;53.016;-2.260;2022-10-26T06:32:38;24.55;;;3.58;;
44670;SDS011;48397;53.016;-2.260;2022-10-26T06:37:43;25.90;;;3.47;;
44670;SDS011;48397;53.016;-2.260;2022-10-26T06:40:12;13.13;;;2.72;;
44670;SDS011;48397;53.016;-2.260;2022-10-26T06:42:42;8.13;;;2.55;;
44670;SDS011;48397;53.016;-2.260;2022-10-26T06:45:13;14.57;;;3.50;;
44670;SDS011;48397;53.016;-2.260;2022-10-26T06:55:47;14.20;;;5.20;;
44670;SDS011;48397;53.016;-2.260;2022-10-26T06:58:17;14.75;;;4.65;;
44670;SDS011;48397;53.016;-2.260;2022-10-26T07:00:50;15.88;;;3.60;;
44670;SDS011;48397;53.016;-2.260;2022-10-26T07:03:19;10.77;;;2.55;;
44670;SDS011;48397;53.016;-2.260;2022-10-26T07:05:47;15.18;;;2.80;;
44670;SDS011;48397;53.016;-2.260;2022-10-26T07:08:15;12.52;;;2.85;;
44670;SDS011;48397;53.016;-2.260;2022-10-26T07:10:44;11.82;;;2.45;;
44670;SDS011;48397;53.016;-2.260;2022-10-26T07:13:12;12.05;;;2.40;;
44670;SDS011;48397;53.016;-2.260;2022-10-26T07:15:40;12.05;;;3.22;;
44670;SDS011;48397;53.016;-2.260;2022-10-26T07:18:08;16.92;;;3.33;;
44670;SDS011;48397;53.016;-2.260;2022-10-26T07:20:37;14.25;;;2.67;;
44670;SDS011;48397;53.016;-2.260;2022-10-26T07:23:06;15.63;;;2.83;;
44670;SDS011;48397;53.016;-2.260;2022-10-26T07:25:37;22.05;;;3.20;;
44670;SDS011;48397;53.016;-2.260;2022-10-26T07:28:07;15.07;;;2.20;;
44670;SDS011;48397;53.016;-2.260;2022-10-26T07:30:39;12.18;;;2.67;;
44670;SDS011;48397;53.016;-2.260;2022-10-26T07:35:39;10.18;;;2.40;;
44670;SDS011;48397;53.016;-2.260;2022-10-26T07:38:07;13.95;;;2.30;;
44670;SDS011;48397;53.016;-2.260;2022-10-26T07:40:35;17.23;;;2.55;;
44670;SDS011;48397;53.016;-2.260;2022-10-26T07:43:04;12.02;;;2.80;;
44670;SDS011;48397;53.016;-2.260;2022-10-26T07:45:31;14.43;;;2.55;;
44670;SDS011;48397;53.016;-2.260;2022-10-26T07:47:59;15.02;;;2.60;;
44670;SDS011;48397;53.016;-2.260;2022-10-26T07:50:26;14.90;;;3.30;;
44670;SDS011;48397;53.016;-2.260;2022-10-26T07:52:54;15.27;;;2.88;;
44670;SDS011;48397;53.016;-2.260;2022-10-26T07:55:21;21.52;;;2.80;;
44670;SDS011;48397;53.016;-2.260;2022-10-26T07:57:49;15.75;;;2.83;;
44670;SDS011;48397;53.016;-2.260;2022-10-26T08:00:20;18.80;;;2.60;;
44670;SDS011;48397;53.016;-2.260;2022-10-26T08:05:16;17.42;;;3.13;;
44670;SDS011;48397;53.016;-2.260;2022-10-26T08:07:44;17.33;;;2.40;;
44670;SDS011;48397;53.016;-2.260;2022-10-26T08:12:40;14.02;;;2.22;;
44670;SDS011;48397;53.016;-2.260;2022-10-26T08:15:09;15.65;;;2.60;;
44670;SDS011;48397;53.016;-2.260;2022-10-26T08:20:04;13.45;;;2.20;;
44670;SDS011;48397;53.016;-2.260;2022-10-26T08:24:59;14.38;;;2.65;;
44670;SDS011;48397;53.016;-2.260;2022-10-26T08:27:27;9.32;;;2.00;;
44670;SDS011;48397;53.016;-2.260;2022-10-26T08:29:55;10.70;;;2.65;;
44670;SDS011;48397;53.016;-2.260;2022-10-26T08:32:23;12.05;;;2.50;;
44670;SDS011;48397;53.016;-2.260;2022-10-26T08:34:50;10.38;;;2.35;;
44670;SDS011;48397;53.016;-2.260;2022-10-26T08:37:18;12.73;;;2.05;;
44670;SDS011;48397;53.016;-2.260;2022-10-26T08:39:45;18.98;;;2.60;;
44670;SDS011;48397;53.016;-2.260;2022-10-26T08:42:18;13.40;;;2.30;;
44670;SDS011;48397;53.016;-2.260;2022-10-26T08:44:55;16.08;;;2.63;;
44670;SDS011;48397;53.016;-2.260;2022-10-26T08:47:31;16.58;;;2.60;;
44670;SDS011;48397;53.016;-2.260;2022-10-26T08:50:07;13.35;;;2.17;;
44670;SDS011;48397;53.016;-2.260;2022-10-26T08:52:40;8.38;;;2.10;;
44670;SDS011;48397;53.016;-2.260;2022-10-26T08:55:15;12.48;;;2.58;;
44670;SDS011;48397;53.016;-2.260;2022-10-26T08:57:47;8.95;;;2.22;;
44670;SDS011;48397;53.016;-2.260;2022-10-26T09:00:17;14.80;;;2.38;;
44670;SDS011;48397;53.016;-2.260;2022-10-26T09:02:50;14.98;;;2.83;;
44670;SDS011;48397;53.016;-2.260;2022-10-26T09:05:25;16.40;;;2.67;;
44670;SDS011;48397;53.016;-2.260;2022-10-26T09:16:27;14.88;;;2.80;;
44670;SDS011;48397;53.016;-2.260;2022-10-26T09:22:23;10.77;;;2.30;;
44670;SDS011;48397;53.016;-2.260;2022-10-26T09:25:01;15.55;;;2.78;;
44670;SDS011;48397;53.016;-2.260;2022-10-26T09:27:42;17.73;;;3.08;;
44670;SDS011;48397;53.016;-2.260;2022-10-26T09:30:15;16.45;;;2.55;;
44670;SDS011;48397;53.016;-2.260;2022-10-26T09:32:48;12.50;;;2.65;;
44670;SDS011;48397;53.016;-2.260;2022-10-26T09:35:26;10.23;;;2.35;;
44670;SDS011;48397;53.016;-2.260;2022-10-26T09:38:00;10.40;;;2.13;;
44670;SDS011;48397;53.016;-2.260;2022-10-26T09:40:46;14.10;;;2.65;;
44670;SDS011;48397;53.016;-2.260;2022-10-26T09:43:35;13.23;;;2.47;;
44670;SDS011;48397;53.016;-2.260;2022-10-26T09:46:30;12.10;;;2.20;;
44670;SDS011;48397;53.016;-2.260;2022-10-26T09:49:04;12.77;;;2.30;;
44670;SDS011;48397;53.016;-2.260;2022-10-26T09:51:35;14.23;;;2.83;;
44670;SDS011;48397;53.016;-2.260;2022-10-26T09:54:11;14.95;;;2.67;;
44670;SDS011;48397;53.016;-2.260;2022-10-26T09:56:44;14.52;;;2.45;;
44670;SDS011;48397;53.016;-2.260;2022-10-26T09:59:17;14.52;;;2.22;;
44670;SDS011;48397;53.016;-2.260;2022-10-26T10:01:47;12.55;;;2.90;;
44670;SDS011;48397;53.016;-2.260;2022-10-26T10:06:52;8.95;;;2.50;;
44670;SDS011;48397;53.016;-2.260;2022-10-26T10:09:43;7.90;;;2.45;;
44670;SDS011;48397;53.016;-2.260;2022-10-26T10:12:31;6.47;;;1.73;;
44670;SDS011;48397;53.016;-2.260;2022-10-26T10:14:59;10.30;;;2.00;;
44670;SDS011;48397;53.016;-2.260;2022-10-26T10:17:27;11.98;;;3.25;;
44670;SDS011;48397;53.016;-2.260;2022-10-26T10:25:00;7.97;;;1.90;;
44670;SDS011;48397;53.016;-2.260;2022-10-26T10:27:29;10.88;;;2.30;;
44670;SDS011;48397;53.016;-2.260;2022-10-26T10:30:14;11.40;;;2.30;;
44670;SDS011;48397;53.016;-2.260;2022-10-26T10:33:02;9.02;;;1.67;;
44670;SDS011;48397;53.016;-2.260;2022-10-26T10:35:36;12.27;;;2.45;;
44670;SDS011;48397;53.016;-2.260;2022-10-26T10:38:16;9.73;;;2.03;;
44670;SDS011;48397;53.016;-2.260;2022-10-26T10:40:50;9.05;;;2.22;;
44670;SDS011;48397;53.016;-2.260;2022-10-26T10:43:23;9.80;;;2.25;;
44670;SDS011;48397;53.016;-2.260;2022-10-26T10:45:52;10.77;;;1.85;;
44670;SDS011;48397;53.016;-2.260;2022-10-26T10:48:28;12.98;;;2.58;;
44670;SDS011;48397;53.016;-2.260;2022-10-26T10:51:03;11.65;;;2.20;;
44670;SDS011;48397;53.016;-2.260;2022-10-26T10:54:00;11.57;;;2.10;;
44670;SDS011;48397;53.016;-2.260;2022-10-26T11:08:02;10.85;;;2.00;;
44670;SDS011;48397;53.016;-2.260;2022-10-26T11:10:36;16.08;;;2.53;;
44670;SDS011;48397;53.016;-2.260;2022-10-26T11:13:21;9.88;;;2.20;;
44670;SDS011;48397;53.016;-2.260;2022-10-26T11:15:54;17.42;;;2.90;;
44670;SDS011;48397;53.016;-2.260;2022-10-26T11:18:30;9.13;;;2.15;;
44670;SDS011;48397;53.016;-2.260;2022-10-26T11:21:14;5.80;;;1.60;;
44670;SDS011;48397;53.016;-2.260;2022-10-26T11:23:51;10.48;;;1.98;;
44670;SDS011;48397;53.016;-2.260;2022-10-26T11:26:41;12.98;;;3.22;;
44670;SDS011;48397;53.016;-2.260;2022-10-26T11:32:09;12.18;;;2.83;;
44670;SDS011;48397;53.016;-2.260;2022-10-26T11:40:37;13.02;;;2.92;;
44670;SDS011;48397;53.016;-2.260;2022-10-26T11:43:15;16.05;;;2.28;;
44670;SDS011;48397;53.016;-2.260;2022-10-26T11:46:04;11.57;;;2.25;;
44670;SDS011;48397;53.016;-2.260;2022-10-26T11:51:36;21.10;;;2.33;;
44670;SDS011;48397;53.016;-2.260;2022-10-26T11:54:24;11.40;;;2.13;;
44670;SDS011;48397;53.016;-2.260;2022-10-26T11:57:11;9.07;;;1.95;;
44670;SDS011;48397;53.016;-2.260;2022-10-26T11:59:43;8.30;;;1.75;;
44670;SDS011;48397;53.016;-2.260;2022-10-26T12:02:19;9.57;;;2.05;;
44670;SDS011;48397;53.016;-2.260;2022-10-26T12:04:51;16.08;;;2.72;;
44670;SDS011;48397;53.016;-2.260;2022-10-26T12:07:28;11.63;;;2.58;;
44670;SDS011;48397;53.016;-2.260;2022-10-26T12:09:57;12.43;;;2.75;;
44670;SDS011;48397;53.016;-2.260;2022-10-26T12:12:44;13.98;;;2.60;;
44670;SDS011;48397;53.016;-2.260;2022-10-26T12:15:29;8.30;;;2.20;;
44670;SDS011;48397;53.016;-2.260;2022-10-26T12:21:15;8.93;;;2.05;;
44670;SDS011;48397;53.016;-2.260;2022-10-26T12:23:54;15.23;;;2.25;;
44670;SDS011;48397;53.016;-2.260;2022-10-26T12:33:59;15.10;;;2.33;;
44670;SDS011;48397;53.016;-2.260;2022-10-26T12:39:31;17.42;;;2.55;;
44670;SDS011;48397;53.016;-2.260;2022-10-26T12:48:22;14.52;;;2.65;;
44670;SDS011;48397;53.016;-2.260;2022-10-26T12:59:59;14.07;;;2.63;;
44670;SDS011;48397;53.016;-2.260;2022-10-26T13:08:41;12.85;;;2.75;;
44670;SDS011;48397;53.016;-2.260;2022-10-26T13:11:27;22.83;;;2.95;;
44670;SDS011;48397;53.016;-2.260;2022-10-26T13:13:59;16.40;;;2.30;;
44670;SDS011;48397;53.016;-2.260;2022-10-26T13:16:30;17.50;;;1.90;;
44670;SDS011;48397;53.016;-2.260;2022-10-26T13:18:58;8.52;;;2.00;;
44670;SDS011;48397;53.016;-2.260;2022-10-26T13:21:27;12.82;;;2.72;;
44670;SDS011;48397;53.016;-2.260;2022-10-26T13:23:58;19.92;;;2.72;;
44670;SDS011;48397;53.016;-2.260;2022-10-26T13:26:32;15.80;;;2.10;;
44670;SDS011;48397;53.016;-2.260;2022-10-26T13:29:32;11.60;;;2.33;;
44670;SDS011;48397;53.016;-2.260;2022-10-26T13:32:35;16.40;;;3.08;;
44670;SDS011;48397;53.016;-2.260;2022-10-26T13:35:10;13.18;;;2.83;;
44670;SDS011;48397;53.016;-2.260;2022-10-26T13:37:46;15.48;;;3.42;;
44670;SDS011;48397;53.016;-2.260;2022-10-26T13:40:17;8.05;;;1.73;;
44670;SDS011;48397;53.016;-2.260;2022-10-26T13:42:47;14.30;;;2.13;;
44670;SDS011;48397;53.016;-2.260;2022-10-26T13:45:22;16.85;;;2.33;;
44670;SDS011;48397;53.016;-2.260;2022-10-26T13:47:58;13.20;;;2.28;;
44670;SDS011;48397;53.016;-2.260;2022-10-26T13:50:53;13.88;;;2.50;;
44670;SDS011;48397;53.016;-2.260;2022-10-26T13:53:22;9.88;;;2.28;;
44670;SDS011;48397;53.016;-2.260;2022-10-26T14:01:23;17.60;;;2.90;;
44670;SDS011;48397;53.016;-2.260;2022-10-26T14:03:51;12.48;;;3.03;;
44670;SDS011;48397;53.016;-2.260;2022-10-26T14:06:32;12.73;;;2.50;;
44670;SDS011;48397;53.016;-2.260;2022-10-26T14:09:06;16.85;;;2.28;;
44670;SDS011;48397;53.016;-2.260;2022-10-26T14:11:50;15.40;;;2.10;;
44670;SDS011;48397;53.016;-2.260;2022-10-26T14:14:24;12.23;;;2.15;;
44670;SDS011;48397;53.016;-2.260;2022-10-26T14:16:56;16.73;;;2.03;;
44670;SDS011;48397;53.016;-2.260;2022-10-26T14:19:26;13.55;;;2.08;;
44670;SDS011;48397;53.016;-2.260;2022-10-26T14:21:58;13.13;;;1.90;;
44670;SDS011;48397;53.016;-2.260;2022-10-26T14:24:31;11.93;;;1.92;;
44670;SDS011;48397;53.016;-2.260;2022-10-26T14:27:14;10.40;;;2.00;;
44670;SDS011;48397;53.016;-2.260;2022-10-26T14:29:43;12.27;;;1.85;;
44670;SDS011;48397;53.016;-2.260;2022-10-26T14:32:20;10.40;;;1.70;;
44670;SDS011;48397;53.016;-2.260;2022-10-26T14:34:48;23.30;;;2.70;;
44670;SDS011;48397;53.016;-2.260;2022-10-26T14:37:59;9.93;;;1.90;;
44670;SDS011;48397;53.016;-2.260;2022-10-26T14:40:16;15.25;;;2.35;;
44670;SDS011;48397;53.016;-2.260;2022-10-26T14:42:47;15.75;;;2.20;;
44670;SDS011;48397;53.016;-2.260;2022-10-26T14:48:18;12.55;;;2.30;;
44670;SDS011;48397;53.016;-2.260;2022-10-26T14:51:08;17.58;;;2.20;;
44670;SDS011;48397;53.016;-2.260;2022-10-26T14:53:47;16.02;;;2.58;;
44670;SDS011;48397;53.016;-2.260;2022-10-26T14:56:24;13.70;;;2.28;;
44670;SDS011;48397;53.016;-2.260;2022-10-26T14:59:21;16.15;;;2.70;;
44670;SDS011;48397;53.016;-2.260;2022-10-26T15:04:28;15.98;;;2.10;;
44670;SDS011;48397;53.016;-2.260;2022-10-26T15:09:40;12.15;;;2.10;;
44670;SDS011;48397;53.016;-2.260;2022-10-26T15:14:59;18.50;;;2.53;;
44670;SDS011;48397;53.016;-2.260;2022-10-26T15:17:41;26.85;;;2.97;;
44670;SDS011;48397;53.016;-2.260;2022-10-26T15:20:15;14.75;;;2.30;;
44670;SDS011;48397;53.016;-2.260;2022-10-26T15:23:03;15.30;;;2.60;;
44670;SDS011;48397;53.016;-2.260;2022-10-26T15:25:34;12.30;;;2.65;;
44670;SDS011;48397;53.016;-2.260;2022-10-26T15:28:08;15.85;;;2.50;;
44670;SDS011;48397;53.016;-2.260;2022-10-26T15:36:32;18.20;;;3.05;;
44670;SDS011;48397;53.016;-2.260;2022-10-26T15:39:01;15.07;;;2.33;;
44670;SDS011;48397;53.016;-2.260;2022-10-26T15:44:09;14.77;;;2.38;;
44670;SDS011;48397;53.016;-2.260;2022-10-26T15:46:42;15.70;;;3.20;;
44670;SDS011;48397;53.016;-2.260;2022-10-26T15:49:14;17.17;;;2.47;;
44670;SDS011;48397;53.016;-2.260;2022-10-26T15:51:43;14.82;;;2.28;;
44670;SDS011;48397;53.016;-2.260;2022-10-26T15:54:14;15.85;;;2.38;;
44670;SDS011;48397;53.016;-2.260;2022-10-26T15:59:16;12.15;;;2.40;;
44670;SDS011;48397;53.016;-2.260;2022-10-26T16:01:45;18.63;;;2.83;;
44670;SDS011;48397;53.016;-2.260;2022-10-26T16:04:13;17.23;;;2.33;;
44670;SDS011;48397;53.016;-2.260;2022-10-26T16:06:40;13.98;;;2.55;;
44670;SDS011;48397;53.016;-2.260;2022-10-26T16:09:11;18.27;;;2.83;;
44670;SDS011;48397;53.016;-2.260;2022-10-26T16:11:41;15.20;;;2.85;;
44670;SDS011;48397;53.016;-2.260;2022-10-26T16:14:10;13.20;;;2.47;;
44670;SDS011;48397;53.016;-2.260;2022-10-26T16:16:39;13.52;;;2.40;;
44670;SDS011;48397;53.016;-2.260;2022-10-26T16:19:07;13.70;;;2.50;;
44670;SDS011;48397;53.016;-2.260;2022-10-26T16:21:56;19.35;;;2.58;;
44670;SDS011;48397;53.016;-2.260;2022-10-26T16:24:24;17.73;;;2.67;;
44670;SDS011;48397;53.016;-2.260;2022-10-26T16:26:53;18.92;;;2.60;;
44670;SDS011;48397;53.016;-2.260;2022-10-26T16:31:48;15.23;;;2.35;;
44670;SDS011;48397;53.016;-2.260;2022-10-26T16:34:16;17.50;;;3.35;;
44670;SDS011;48397;53.016;-2.260;2022-10-26T16:36:43;20.08;;;2.70;;
44670;SDS011;48397;53.016;-2.260;2022-10-26T16:39:11;14.43;;;2.47;;
44670;SDS011;48397;53.016;-2.260;2022-10-26T16:41:39;10.93;;;2.33;;
44670;SDS011;48397;53.016;-2.260;2022-10-26T16:44:09;10.32;;;1.90;;
44670;SDS011;48397;53.016;-2.260;2022-10-26T16:46:38;18.52;;;3.55;;
44670;SDS011;48397;53.016;-2.260;2022-10-26T16:49:06;16.05;;;2.72;;
44670;SDS011;48397;53.016;-2.260;2022-10-26T16:51:34;18.98;;;2.85;;
44670;SDS011;48397;53.016;-2.260;2022-10-26T16:54:01;23.50;;;3.13;;
44670;SDS011;48397;53.016;-2.260;2022-10-26T16:56:29;18.55;;;2.95;;
44670;SDS011;48397;53.016;-2.260;2022-10-26T16:58:57;13.98;;;2.50;;
44670;SDS011;48397;53.016;-2.260;2022-10-26T17:01:25;15.45;;;2.97;;
44670;SDS011;48397;53.016;-2.260;2022-10-26T17:03:53;21.50;;;2.40;;
44670;SDS011;48397;53.016;-2.260;2022-10-26T17:06:20;18.92;;;2.53;;
44670;SDS011;48397;53.016;-2.260;2022-10-26T17:08:48;16.48;;;2.60;;
44670;SDS011;48397;53.016;-2.260;2022-10-26T17:11:17;12.90;;;2.10;;
44670;SDS011;48397;53.016;-2.260;2022-10-26T17:13:51;21.75;;;2.75;;
44670;SDS011;48397;53.016;-2.260;2022-10-26T17:16:21;14.07;;;2.25;;
44670;SDS011;48397;53.016;-2.260;2022-10-26T17:18:49;15.85;;;2.08;;
44670;SDS011;48397;53.016;-2.260;2022-10-26T17:21:18;16.13;;;2.33;;
44670;SDS011;48397;53.016;-2.260;2022-10-26T17:23:53;15.75;;;3.03;;
44670;SDS011;48397;53.016;-2.260;2022-10-26T17:26:21;14.60;;;2.30;;
44670;SDS011;48397;53.016;-2.260;2022-10-26T17:28:50;16.63;;;2.30;;
44670;SDS011;48397;53.016;-2.260;2022-10-26T17:31:18;9.55;;;1.95;;
44670;SDS011;48397;53.016;-2.260;2022-10-26T17:33:46;17.92;;;2.05;;
44670;SDS011;48397;53.016;-2.260;2022-10-26T17:36:18;20.13;;;2.65;;
44670;SDS011;48397;53.016;-2.260;2022-10-26T17:38:47;16.73;;;2.22;;
44670;SDS011;48397;53.016;-2.260;2022-10-26T17:41:17;14.75;;;2.55;;
44670;SDS011;48397;53.016;-2.260;2022-10-26T17:43:46;9.63;;;1.48;;
44670;SDS011;48397;53.016;-2.260;2022-10-26T17:46:19;12.02;;;2.10;;
44670;SDS011;48397;53.016;-2.260;2022-10-26T17:48:52;15.05;;;1.95;;
44670;SDS011;48397;53.016;-2.260;2022-10-26T17:51:22;11.23;;;1.83;;
44670;SDS011;48397;53.016;-2.260;2022-10-26T17:53:50;17.55;;;2.03;;
44670;SDS011;48397;53.016;-2.260;2022-10-26T18:01:23;12.95;;;1.70;;
44670;SDS011;48397;53.016;-2.260;2022-10-26T18:03:52;10.93;;;1.85;;
44670;SDS011;48397;53.016;-2.260;2022-10-26T18:06:20;10.13;;;1.88;;
44670;SDS011;48397;53.016;-2.260;2022-10-26T18:08:48;17.23;;;2.22;;
44670;SDS011;48397;53.016;-2.260;2022-10-26T18:11:17;13.80;;;2.10;;